KVPZ/VPZ METAR and TAF weather

Enter ICAO airport designator
Station Type Date Time Source
KVPZ METAR 2021/05/17 21:56 UTC NOAA

KVPZ 172156Z AUTO 14007KT 10SM OVC050 18/13 A3021 RMK AO2 SLP229 T01780128


Station Type Date Time Source
KVPZ Decoded METAR 2021/05/17 21:56 UTC NOAA

VALPARAISO PORTER CO MUNI, IN, United States (KVPZ) 41-27N 087-00W 231M
May 17, 2021 - 05:56 PM EDT / 2021.05.17 2156 UTC
Wind: from the SE (140 degrees) at 8 MPH (7 KT):0
Visibility: 10 mile(s):0
Sky conditions: overcast
Temperature: 64.0 F (17.8 C)
Dew Point: 55.0 F (12.8 C)
Relative Humidity: 72%
Pressure (altimeter): 30.21 in. Hg (1023 hPa)
ob: KVPZ 172156Z AUTO 14007KT 10SM OVC050 18/13 A3021 RMK AO2 SLP229 T01780128
cycle: 22

Station Type Date Time Source
KVPZ TAF UTC NOAA

Error!

Example: see airport list